sensor_id;sensor_type;location;lat;lon;timestamp;pressure;altitude;pressure_sealevel;temperature;humidity
75013;BME280;63567;49.956;20.130;2024-01-30T00:02:15;98798.53;;;3.65;72.20
75013;BME280;63567;49.956;20.130;2024-01-30T00:04:40;98788.94;;;3.65;71.54
75013;BME280;63567;49.956;20.130;2024-01-30T00:07:05;98786.41;;;3.64;71.80
75013;BME280;63567;49.956;20.130;2024-01-30T00:09:31;98790.59;;;3.66;71.55
75013;BME280;63567;49.956;20.130;2024-01-30T00:11:57;98782.97;;;3.63;71.64
75013;BME280;63567;49.956;20.130;2024-01-30T00:14:22;98772.66;;;3.62;71.32
75013;BME280;63567;49.956;20.130;2024-01-30T00:16:48;98776.00;;;3.64;71.76
75013;BME280;63567;49.956;20.130;2024-01-30T00:19:14;98777.03;;;3.61;71.32
75013;BME280;63567;49.956;20.130;2024-01-30T00:21:39;98776.19;;;3.61;71.27
75013;BME280;63567;49.956;20.130;2024-01-30T00:24:04;98778.91;;;3.59;71.16
75013;BME280;63567;49.956;20.130;2024-01-30T00:26:30;98778.16;;;3.57;71.46
75013;BME280;63567;49.956;20.130;2024-01-30T00:28:55;98770.66;;;3.53;71.21
75013;BME280;63567;49.956;20.130;2024-01-30T00:31:21;98772.63;;;3.49;71.55
75013;BME280;63567;49.956;20.130;2024-01-30T00:33:46;98766.78;;;3.45;71.19
75013;BME280;63567;49.956;20.130;2024-01-30T00:36:13;98769.69;;;3.41;70.87
75013;BME280;63567;49.956;20.130;2024-01-30T00:38:38;98763.53;;;3.42;71.19
75013;BME280;63567;49.956;20.130;2024-01-30T00:41:03;98762.63;;;3.43;70.66
75013;BME280;63567;49.956;20.130;2024-01-30T00:43:29;98765.41;;;3.40;70.78
75013;BME280;63567;49.956;20.130;2024-01-30T00:45:56;98768.97;;;3.39;70.71
75013;BME280;63567;49.956;20.130;2024-01-30T00:48:21;98762.28;;;3.35;71.06
75013;BME280;63567;49.956;20.130;2024-01-30T00:50:47;98764.78;;;3.36;70.66
75013;BME280;63567;49.956;20.130;2024-01-30T00:53:12;98763.84;;;3.37;71.24
75013;BME280;63567;49.956;20.130;2024-01-30T00:55:38;98757.81;;;3.37;70.96
75013;BME280;63567;49.956;20.130;2024-01-30T00:58:04;98762.06;;;3.38;71.06
75013;BME280;63567;49.956;20.130;2024-01-30T01:00:29;98752.47;;;3.38;70.84
75013;BME280;63567;49.956;20.130;2024-01-30T01:02:56;98752.28;;;3.41;71.23
75013;BME280;63567;49.956;20.130;2024-01-30T01:05:21;98752.47;;;3.38;70.61
75013;BME280;63567;49.956;20.130;2024-01-30T01:07:47;98752.28;;;3.41;70.84
75013;BME280;63567;49.956;20.130;2024-01-30T01:10:16;98753.34;;;3.39;70.96
75013;BME280;63567;49.956;20.130;2024-01-30T01:12:42;98752.28;;;3.41;70.74
75013;BME280;63567;49.956;20.130;2024-01-30T01:15:08;98754.81;;;3.43;70.69
75013;BME280;63567;49.956;20.130;2024-01-30T01:17:37;98758.84;;;3.47;70.60
75013;BME280;63567;49.956;20.130;2024-01-30T01:20:04;98757.84;;;3.49;70.80
75013;BME280;63567;49.956;20.130;2024-01-30T01:22:30;98754.28;;;3.50;70.02
75013;BME280;63567;49.956;20.130;2024-01-30T01:24:56;98760.63;;;3.46;69.71
75013;BME280;63567;49.956;20.130;2024-01-30T01:27:21;98757.72;;;3.51;69.32
75013;BME280;63567;49.956;20.130;2024-01-30T01:29:47;98751.91;;;3.47;69.12
75013;BME280;63567;49.956;20.130;2024-01-30T01:32:12;98754.28;;;3.50;69.82
75013;BME280;63567;49.956;20.130;2024-01-30T01:34:37;98755.84;;;3.53;69.71
75013;BME280;63567;49.956;20.130;2024-01-30T01:37:03;98761.91;;;3.54;69.04
75013;BME280;63567;49.956;20.130;2024-01-30T01:39:28;98757.72;;;3.51;68.77
75013;BME280;63567;49.956;20.130;2024-01-30T01:41:53;98752.63;;;3.49;69.00
75013;BME280;63567;49.956;20.130;2024-01-30T01:44:19;98756.88;;;3.50;69.04
75013;BME280;63567;49.956;20.130;2024-01-30T01:46:44;98758.44;;;3.53;68.66
75013;BME280;63567;49.956;20.130;2024-01-30T01:49:10;98761.19;;;3.52;68.77
75013;BME280;63567;49.956;20.130;2024-01-30T01:51:36;98750.84;;;3.50;68.45
75013;BME280;63567;49.956;20.130;2024-01-30T01:54:03;98755.22;;;3.49;68.20
75013;BME280;63567;49.956;20.130;2024-01-30T01:56:30;98751.78;;;3.49;67.76
75013;BME280;63567;49.956;20.130;2024-01-30T01:58:59;98748.44;;;3.47;68.29
75013;BME280;63567;49.956;20.130;2024-01-30T02:01:26;98752.72;;;3.48;67.82
75013;BME280;63567;49.956;20.130;2024-01-30T02:03:52;98756.38;;;3.45;67.82
75013;BME280;63567;49.956;20.130;2024-01-30T02:06:18;98756.38;;;3.45;67.37
75013;BME280;63567;49.956;20.130;2024-01-30T02:08:44;98758.16;;;3.45;67.29
75013;BME280;63567;49.956;20.130;2024-01-30T02:11:10;98751.97;;;3.46;68.00
75013;BME280;63567;49.956;20.130;2024-01-30T02:13:36;98742.59;;;3.43;67.67
75013;BME280;63567;49.956;20.130;2024-01-30T02:16:02;98740.09;;;3.42;67.46
75013;BME280;63567;49.956;20.130;2024-01-30T02:18:27;98744.47;;;3.41;67.45
75013;BME280;63567;49.956;20.130;2024-01-30T02:20:54;98745.00;;;3.46;67.58
75013;BME280;63567;49.956;20.130;2024-01-30T02:23:23;98733.09;;;3.42;67.17
75013;BME280;63567;49.956;20.130;2024-01-30T02:25:50;98731.97;;;3.46;67.23
75013;BME280;63567;49.956;20.130;2024-01-30T02:28:19;98729.38;;;3.46;67.53
75013;BME280;63567;49.956;20.130;2024-01-30T02:30:45;98723.34;;;3.46;66.97
75013;BME280;63567;49.956;20.130;2024-01-30T02:33:11;98735.31;;;3.48;67.33
75013;BME280;63567;49.956;20.130;2024-01-30T02:35:36;98738.56;;;3.52;66.47
75013;BME280;63567;49.956;20.130;2024-01-30T02:38:01;98730.09;;;3.48;66.61
75013;BME280;63567;49.956;20.130;2024-01-30T02:40:27;98723.97;;;3.49;67.50
75013;BME280;63567;49.956;20.130;2024-01-30T02:42:52;98725.44;;;3.54;67.18
75013;BME280;63567;49.956;20.130;2024-01-30T02:45:18;98723.75;;;3.53;66.44
75013;BME280;63567;49.956;20.130;2024-01-30T02:47:43;98709.25;;;3.48;66.53
75013;BME280;63567;49.956;20.130;2024-01-30T02:50:09;98725.44;;;3.54;66.67
75013;BME280;63567;49.956;20.130;2024-01-30T02:52:34;98720.22;;;3.54;66.06
75013;BME280;63567;49.956;20.130;2024-01-30T02:55:00;98717.72;;;3.52;66.68
75013;BME280;63567;49.956;20.130;2024-01-30T02:57:26;98709.06;;;3.52;66.60
75013;BME280;63567;49.956;20.130;2024-01-30T02:59:51;98709.34;;;3.47;65.98
75013;BME280;63567;49.956;20.130;2024-01-30T03:02:17;98709.06;;;3.52;66.29
75013;BME280;63567;49.956;20.130;2024-01-30T03:04:42;98707.59;;;3.47;65.87
75013;BME280;63567;49.956;20.130;2024-01-30T03:07:08;98700.72;;;3.46;65.51
75013;BME280;63567;49.956;20.130;2024-01-30T03:09:33;98690.59;;;3.42;65.78
75013;BME280;63567;49.956;20.130;2024-01-30T03:11:59;98706.97;;;3.44;66.26
75013;BME280;63567;49.956;20.130;2024-01-30T03:14:24;98700.09;;;3.43;65.81
75013;BME280;63567;49.956;20.130;2024-01-30T03:16:49;98699.25;;;3.42;65.56
75013;BME280;63567;49.956;20.130;2024-01-30T03:19:15;98703.53;;;3.43;65.18
75013;BME280;63567;49.956;20.130;2024-01-30T03:21:40;98691.88;;;3.36;66.03
75013;BME280;63567;49.956;20.130;2024-01-30T03:24:05;98703.94;;;3.37;65.16
75013;BME280;63567;49.956;20.130;2024-01-30T03:26:31;98692.69;;;3.37;65.17
75013;BME280;63567;49.956;20.130;2024-01-30T03:28:56;98702.28;;;3.36;65.36
75013;BME280;63567;49.956;20.130;2024-01-30T03:31:22;98700.69;;;3.34;65.57
75013;BME280;63567;49.956;20.130;2024-01-30T03:33:47;98698.94;;;3.34;65.40
75013;BME280;63567;49.956;20.130;2024-01-30T03:36:12;98709.34;;;3.34;65.52
75013;BME280;63567;49.956;20.130;2024-01-30T03:38:38;98709.22;;;3.36;65.96
75013;BME280;63567;49.956;20.130;2024-01-30T03:41:07;98711.09;;;3.34;66.30
75013;BME280;63567;49.956;20.130;2024-01-30T03:43:33;98709.34;;;3.34;66.25
75013;BME280;63567;49.956;20.130;2024-01-30T03:45:59;98718.81;;;3.35;65.89
75013;BME280;63567;49.956;20.130;2024-01-30T03:48:24;98710.28;;;3.33;65.34
75013;BME280;63567;49.956;20.130;2024-01-30T03:50:50;98705.28;;;3.30;65.64
75013;BME280;63567;49.956;20.130;2024-01-30T03:53:16;98706.84;;;3.33;65.64
75013;BME280;63567;49.956;20.130;2024-01-30T03:55:42;98705.16;;;3.32;65.75
75013;BME280;63567;49.956;20.130;2024-01-30T03:58:07;98700.81;;;3.32;65.90
75013;BME280;63567;49.956;20.130;2024-01-30T04:00:33;98709.44;;;3.33;66.10
75013;BME280;63567;49.956;20.130;2024-01-30T04:02:58;98700.06;;;3.30;65.10
75013;BME280;63567;49.956;20.130;2024-01-30T04:05:23;98702.47;;;3.33;65.08
75013;BME280;63567;49.956;20.130;2024-01-30T04:07:49;98707.75;;;3.32;65.55
75013;BME280;63567;49.956;20.130;2024-01-30T04:10:14;98693.91;;;3.31;65.46
75013;BME280;63567;49.956;20.130;2024-01-30T04:12:39;98694.66;;;3.33;65.54
75013;BME280;63567;49.956;20.130;2024-01-30T04:15:05;98684.44;;;3.30;65.78
75013;BME280;63567;49.956;20.130;2024-01-30T04:17:30;98692.13;;;3.32;65.76
75013;BME280;63567;49.956;20.130;2024-01-30T04:19:56;98688.72;;;3.31;65.83
75013;BME280;63567;49.956;20.130;2024-01-30T04:22:21;98691.22;;;3.33;65.52
75013;BME280;63567;49.956;20.130;2024-01-30T04:24:46;98681.94;;;3.28;65.54
75013;BME280;63567;49.956;20.130;2024-01-30T04:27:12;98695.78;;;3.29;65.67
75013;BME280;63567;49.956;20.130;2024-01-30T04:29:37;98684.84;;;3.24;65.52
75013;BME280;63567;49.956;20.130;2024-01-30T04:32:03;98694.88;;;3.30;65.07
75013;BME280;63567;49.956;20.130;2024-01-30T04:34:28;98691.72;;;3.25;64.95
75013;BME280;63567;49.956;20.130;2024-01-30T04:36:54;98702.69;;;3.30;65.00
75013;BME280;63567;49.956;20.130;2024-01-30T04:39:19;98706.94;;;3.31;65.19
75013;BME280;63567;49.956;20.130;2024-01-30T04:41:44;98704.34;;;3.31;65.46
75013;BME280;63567;49.956;20.130;2024-01-30T04:44:10;98700.91;;;3.31;65.58
75013;BME280;63567;49.956;20.130;2024-01-30T04:46:35;98695.91;;;3.27;65.50
75013;BME280;63567;49.956;20.130;2024-01-30T04:49:00;98697.47;;;3.30;65.33
75013;BME280;63567;49.956;20.130;2024-01-30T04:51:26;98703.50;;;3.31;65.41
75013;BME280;63567;49.956;20.130;2024-01-30T04:53:51;98712.97;;;3.32;65.27
75013;BME280;63567;49.956;20.130;2024-01-30T04:56:16;98716.44;;;3.32;64.91
75013;BME280;63567;49.956;20.130;2024-01-30T04:58:42;98713.19;;;3.28;65.69
75013;BME280;63567;49.956;20.130;2024-01-30T05:01:07;98710.16;;;3.22;65.17
75013;BME280;63567;49.956;20.130;2024-01-30T05:03:33;98707.34;;;3.25;65.13
75013;BME280;63567;49.956;20.130;2024-01-30T05:05:59;98702.13;;;3.25;65.29
75013;BME280;63567;49.956;20.130;2024-01-30T05:08:25;98703.91;;;3.24;65.78
75013;BME280;63567;49.956;20.130;2024-01-30T05:10:50;98711.53;;;3.27;66.26
75013;BME280;63567;49.956;20.130;2024-01-30T05:13:15;98709.84;;;3.26;65.69
75013;BME280;63567;49.956;20.130;2024-01-30T05:15:41;98704.00;;;3.23;65.91
75013;BME280;63567;49.956;20.130;2024-01-30T05:18:06;98709.31;;;3.21;65.45
75013;BME280;63567;49.956;20.130;2024-01-30T05:20:31;98709.31;;;3.21;65.37
75013;BME280;63567;49.956;20.130;2024-01-30T05:22:57;98702.44;;;3.20;65.15
75013;BME280;63567;49.956;20.130;2024-01-30T05:25:22;98700.66;;;3.21;65.59
75013;BME280;63567;49.956;20.130;2024-01-30T05:27:48;98708.47;;;3.21;65.26
75013;BME280;63567;49.956;20.130;2024-01-30T05:30:14;98707.72;;;3.19;65.14
75013;BME280;63567;49.956;20.130;2024-01-30T05:32:39;98699.00;;;3.20;65.71
75013;BME280;63567;49.956;20.130;2024-01-30T05:35:05;98699.75;;;3.22;65.38
75013;BME280;63567;49.956;20.130;2024-01-30T05:37:30;98702.34;;;3.22;64.98
75013;BME280;63567;49.956;20.130;2024-01-30T05:39:55;98704.94;;;3.22;65.66
75013;BME280;63567;49.956;20.130;2024-01-30T05:42:21;98704.72;;;3.25;65.16
75013;BME280;63567;49.956;20.130;2024-01-30T05:44:46;98696.31;;;3.21;65.31
75013;BME280;63567;49.956;20.130;2024-01-30T05:47:12;98700.56;;;3.22;64.98
75013;BME280;63567;49.956;20.130;2024-01-30T05:49:37;98701.59;;;3.20;64.78
75013;BME280;63567;49.956;20.130;2024-01-30T05:52:04;98702.44;;;3.20;64.82
75013;BME280;63567;49.956;20.130;2024-01-30T05:54:29;98704.22;;;3.20;64.73
75013;BME280;63567;49.956;20.130;2024-01-30T05:56:55;98706.06;;;3.18;64.78
75013;BME280;63567;49.956;20.130;2024-01-30T05:59:20;98707.72;;;3.19;64.71
75013;BME280;63567;49.956;20.130;2024-01-30T06:01:46;98712.22;;;3.17;64.72
75013;BME280;63567;49.956;20.130;2024-01-30T06:04:12;98717.13;;;3.21;64.30
75013;BME280;63567;49.956;20.130;2024-01-30T06:06:38;98707.13;;;3.15;64.29
75013;BME280;63567;49.956;20.130;2024-01-30T06:09:03;98715.75;;;3.16;64.40
75013;BME280;63567;49.956;20.130;2024-01-30T06:11:29;98719.09;;;3.18;64.39
75013;BME280;63567;49.956;20.130;2024-01-30T06:13:54;98713.25;;;3.14;64.09
75013;BME280;63567;49.956;20.130;2024-01-30T06:16:19;98708.97;;;3.13;65.11
75013;BME280;63567;49.956;20.130;2024-01-30T06:18:46;98707.28;;;3.12;64.95
75013;BME280;63567;49.956;20.130;2024-01-30T06:21:12;98708.34;;;3.09;64.72
75013;BME280;63567;49.956;20.130;2024-01-30T06:23:38;98713.44;;;3.11;64.69
75013;BME280;63567;49.956;20.130;2024-01-30T06:26:03;98710.13;;;3.09;64.39
75013;BME280;63567;49.956;20.130;2024-01-30T06:28:29;98710.63;;;3.14;64.29
75013;BME280;63567;49.956;20.130;2024-01-30T06:30:54;98705.72;;;3.09;64.19
75013;BME280;63567;49.956;20.130;2024-01-30T06:33:20;98705.84;;;3.08;64.37
75013;BME280;63567;49.956;20.130;2024-01-30T06:35:45;98707.28;;;3.12;65.08
75013;BME280;63567;49.956;20.130;2024-01-30T06:38:11;98707.94;;;3.16;65.36
75013;BME280;63567;49.956;20.130;2024-01-30T06:40:36;98705.66;;;3.11;65.14
75013;BME280;63567;49.956;20.130;2024-01-30T06:43:03;98709.81;;;3.14;65.26
75013;BME280;63567;49.956;20.130;2024-01-30T06:45:29;98712.31;;;3.15;65.00
75013;BME280;63567;49.956;20.130;2024-01-30T06:47:54;98710.53;;;3.16;64.89
75013;BME280;63567;49.956;20.130;2024-01-30T06:50:20;98702.00;;;3.14;65.31
75013;BME280;63567;49.956;20.130;2024-01-30T06:52:45;98704.69;;;3.12;65.76
75013;BME280;63567;49.956;20.130;2024-01-30T06:55:11;98705.13;;;3.19;65.37
75013;BME280;63567;49.956;20.130;2024-01-30T06:57:36;98706.72;;;3.21;65.70
75013;BME280;63567;49.956;20.130;2024-01-30T07:00:02;98702.53;;;3.19;65.92
75013;BME280;63567;49.956;20.130;2024-01-30T07:02:27;98702.53;;;3.19;65.95
75013;BME280;63567;49.956;20.130;2024-01-30T07:04:53;98705.69;;;3.24;65.72
75013;BME280;63567;49.956;20.130;2024-01-30T07:07:18;98712.53;;;3.25;65.55
75013;BME280;63567;49.956;20.130;2024-01-30T07:09:44;98709.94;;;3.25;65.00
75013;BME280;63567;49.956;20.130;2024-01-30T07:12:09;98707.16;;;3.28;65.88
75013;BME280;63567;49.956;20.130;2024-01-30T07:14:35;98708.81;;;3.29;65.61
75013;BME280;63567;49.956;20.130;2024-01-30T07:17:00;98708.63;;;3.32;65.94
75013;BME280;63567;49.956;20.130;2024-01-30T07:19:26;98704.16;;;3.34;65.98
75013;BME280;63567;49.956;20.130;2024-01-30T07:21:52;98707.59;;;3.35;65.62
75013;BME280;63567;49.956;20.130;2024-01-30T07:24:17;98711.00;;;3.35;65.68
75013;BME280;63567;49.956;20.130;2024-01-30T07:26:43;98713.41;;;3.38;65.57
75013;BME280;63567;49.956;20.130;2024-01-30T07:29:08;98720.22;;;3.41;66.07
75013;BME280;63567;49.956;20.130;2024-01-30T07:31:33;98713.75;;;3.46;65.73
75013;BME280;63567;49.956;20.130;2024-01-30T07:33:59;98712.09;;;3.45;66.32
75013;BME280;63567;49.956;20.130;2024-01-30T07:36:24;98714.28;;;3.52;65.86
75013;BME280;63567;49.956;20.130;2024-01-30T07:38:49;98726.06;;;3.57;65.72
75013;BME280;63567;49.956;20.130;2024-01-30T07:41:15;98715.44;;;3.60;65.67
75013;BME280;63567;49.956;20.130;2024-01-30T07:43:40;98719.69;;;3.61;65.56
75013;BME280;63567;49.956;20.130;2024-01-30T07:46:05;98713.34;;;3.65;65.50
75013;BME280;63567;49.956;20.130;2024-01-30T07:48:33;98720.66;;;3.73;65.30
75013;BME280;63567;49.956;20.130;2024-01-30T07:50:59;98722.97;;;3.78;65.41
75013;BME280;63567;49.956;20.130;2024-01-30T07:53:25;98716.81;;;3.79;65.24
75013;BME280;63567;49.956;20.130;2024-01-30T07:55:50;98717.22;;;3.85;65.56
75013;BME280;63567;49.956;20.130;2024-01-30T08:01:56;98714.94;;;3.94;65.11
75013;BME280;63567;49.956;20.130;2024-01-30T08:10:53;98724.81;;;4.14;65.02
75013;BME280;63567;49.956;20.130;2024-01-30T08:13:18;98720.88;;;4.21;64.60
75013;BME280;63567;49.956;20.130;2024-01-30T08:15:43;98713.66;;;4.25;64.35
75013;BME280;63567;49.956;20.130;2024-01-30T08:18:09;98727.41;;;4.40;64.06
75013;BME280;63567;49.956;20.130;2024-01-30T08:20:34;98729.38;;;4.49;63.93
75013;BME280;63567;49.956;20.130;2024-01-30T08:23:00;98716.34;;;4.49;63.81
75013;BME280;63567;49.956;20.130;2024-01-30T08:25:25;98728.59;;;4.60;63.85
75013;BME280;63567;49.956;20.130;2024-01-30T08:27:51;98727.16;;;4.68;63.53
75013;BME280;63567;49.956;20.130;2024-01-30T08:30:16;98724.94;;;4.75;63.52
75013;BME280;63567;49.956;20.130;2024-01-30T08:32:41;98715.38;;;4.87;63.55
75013;BME280;63567;49.956;20.130;2024-01-30T08:35:07;98723.41;;;4.97;63.03
75013;BME280;63567;49.956;20.130;2024-01-30T08:37:32;98719.38;;;5.04;62.26
75013;BME280;63567;49.956;20.130;2024-01-30T08:39:57;98716.09;;;5.13;62.28
75013;BME280;63567;49.956;20.130;2024-01-30T08:42:22;98724.59;;;5.28;61.81
75013;BME280;63567;49.956;20.130;2024-01-30T08:44:49;98714.63;;;5.33;61.59
75013;BME280;63567;49.956;20.130;2024-01-30T08:47:14;98718.25;;;5.43;61.70
75013;BME280;63567;49.956;20.130;2024-01-30T08:49:41;98719.00;;;5.56;61.70
75013;BME280;63567;49.956;20.130;2024-01-30T08:52:08;98729.38;;;5.69;61.54
75013;BME280;63567;49.956;20.130;2024-01-30T08:54:33;98723.69;;;5.75;60.89
75013;BME280;63567;49.956;20.130;2024-01-30T08:57:00;98721.91;;;5.87;60.56
75013;BME280;63567;49.956;20.130;2024-01-30T08:59:25;98716.75;;;5.99;60.40
75013;BME280;63567;49.956;20.130;2024-01-30T09:01:50;98719.13;;;6.13;60.12
75013;BME280;63567;49.956;20.130;2024-01-30T09:04:18;98717.47;;;6.23;60.00
75013;BME280;63567;49.956;20.130;2024-01-30T09:06:43;98727.56;;;6.39;59.47
75013;BME280;63567;49.956;20.130;2024-01-30T09:09:09;98723.16;;;6.51;59.44
75013;BME280;63567;49.956;20.130;2024-01-30T09:11:35;98721.97;;;6.66;59.16
75013;BME280;63567;49.956;20.130;2024-01-30T09:14:00;98725.25;;;6.79;58.74
75013;BME280;63567;49.956;20.130;2024-01-30T09:16:25;98712.03;;;6.92;58.88
75013;BME280;63567;49.956;20.130;2024-01-30T09:18:51;98711.72;;;7.07;58.76
75013;BME280;63567;49.956;20.130;2024-01-30T09:21:16;98712.03;;;7.25;58.40
75013;BME280;63567;49.956;20.130;2024-01-30T09:23:41;98700.53;;;7.37;58.32
75013;BME280;63567;49.956;20.130;2024-01-30T09:26:06;98703.56;;;7.53;57.61
75013;BME280;63567;49.956;20.130;2024-01-30T09:28:32;98702.53;;;7.66;57.47
75013;BME280;63567;49.956;20.130;2024-01-30T09:30:57;98701.25;;;7.81;57.07
75013;BME280;63567;49.956;20.130;2024-01-30T09:33:22;98699.56;;;8.01;57.43
75013;BME280;63567;49.956;20.130;2024-01-30T09:35:47;98706.13;;;8.16;57.32
75013;BME280;63567;49.956;20.130;2024-01-30T09:38:13;98702.88;;;8.34;56.91
75013;BME280;63567;49.956;20.130;2024-01-30T09:40:38;98706.84;;;8.49;56.21
75013;BME280;63567;49.956;20.130;2024-01-30T09:43:03;98706.47;;;8.63;55.80
75013;BME280;63567;49.956;20.130;2024-01-30T09:45:29;98688.94;;;8.83;55.39
75013;BME280;63567;49.956;20.130;2024-01-30T09:47:55;98698.78;;;9.01;55.33
75013;BME280;63567;49.956;20.130;2024-01-30T09:50:21;98697.13;;;9.19;54.76
75013;BME280;63567;49.956;20.130;2024-01-30T09:52:47;98688.72;;;9.35;54.29
75013;BME280;63567;49.956;20.130;2024-01-30T09:55:13;98682.03;;;9.51;53.67
75013;BME280;63567;49.956;20.130;2024-01-30T09:57:39;98682.16;;;9.69;53.88
75013;BME280;63567;49.956;20.130;2024-01-30T10:00:05;98679.91;;;9.83;52.67
75013;BME280;63567;49.956;20.130;2024-01-30T10:02:33;98691.63;;;9.99;52.79
75013;BME280;63567;49.956;20.130;2024-01-30T10:05:00;98681.47;;;10.14;52.31
75013;BME280;63567;49.956;20.130;2024-01-30T10:07:25;98679.09;;;10.30;51.99
75013;BME280;63567;49.956;20.130;2024-01-30T10:09:50;98675.69;;;10.47;51.97
75013;BME280;63567;49.956;20.130;2024-01-30T10:12:15;98676.91;;;10.71;51.78
75013;BME280;63567;49.956;20.130;2024-01-30T10:14:42;98665.72;;;10.87;51.31
75013;BME280;63567;49.956;20.130;2024-01-30T10:17:08;98669.88;;;11.07;50.89
75013;BME280;63567;49.956;20.130;2024-01-30T10:19:35;98677.78;;;11.25;50.85
75013;BME280;63567;49.956;20.130;2024-01-30T10:22:01;98665.53;;;11.42;50.18
75013;BME280;63567;49.956;20.130;2024-01-30T10:24:26;98664.53;;;11.61;50.46
75013;BME280;63567;49.956;20.130;2024-01-30T10:26:53;98661.22;;;11.85;50.70
75013;BME280;63567;49.956;20.130;2024-01-30T10:29:18;98663.22;;;12.09;50.75
75013;BME280;63567;49.956;20.130;2024-01-30T10:31:43;98661.19;;;12.38;50.02
75013;BME280;63567;49.956;20.130;2024-01-30T10:34:09;98659.63;;;12.61;49.59
75013;BME280;63567;49.956;20.130;2024-01-30T10:36:41;98657.03;;;12.86;49.08
75013;BME280;63567;49.956;20.130;2024-01-30T10:39:08;98659.56;;;13.12;48.62
75013;BME280;63567;49.956;20.130;2024-01-30T10:41:42;98651.16;;;13.33;48.31
75013;BME280;63567;49.956;20.130;2024-01-30T10:44:09;98647.19;;;13.53;48.03
75013;BME280;63567;49.956;20.130;2024-01-30T10:46:35;98648.16;;;13.77;48.19
75013;BME280;63567;49.956;20.130;2024-01-30T10:49:02;98637.66;;;14.00;47.54
75013;BME280;63567;49.956;20.130;2024-01-30T10:51:29;98640.28;;;14.16;46.89
75013;BME280;63567;49.956;20.130;2024-01-30T10:53:55;98638.84;;;14.37;46.65
75013;BME280;63567;49.956;20.130;2024-01-30T10:56:22;98634.81;;;14.57;46.86
75013;BME280;63567;49.956;20.130;2024-01-30T10:58:50;98630.84;;;14.85;45.69
75013;BME280;63567;49.956;20.130;2024-01-30T11:01:16;98636.69;;;15.03;44.79
75013;BME280;63567;49.956;20.130;2024-01-30T11:03:42;98627.41;;;15.22;44.64
75013;BME280;63567;49.956;20.130;2024-01-30T11:06:11;98619.59;;;15.44;44.38
75013;BME280;63567;49.956;20.130;2024-01-30T11:08:39;98632.00;;;15.66;44.63
75013;BME280;63567;49.956;20.130;2024-01-30T11:11:08;98633.78;;;15.89;44.50
75013;BME280;63567;49.956;20.130;2024-01-30T11:13:34;98621.81;;;16.08;44.86
75013;BME280;63567;49.956;20.130;2024-01-30T11:16:04;98624.78;;;16.34;43.53
75013;BME280;63567;49.956;20.130;2024-01-30T11:18:31;98628.53;;;16.55;43.19
75013;BME280;63567;49.956;20.130;2024-01-30T11:21:00;98625.91;;;16.76;43.29
75013;BME280;63567;49.956;20.130;2024-01-30T11:23:29;98622.84;;;16.94;42.09
75013;BME280;63567;49.956;20.130;2024-01-30T11:25:55;98620.19;;;17.16;42.26
75013;BME280;63567;49.956;20.130;2024-01-30T11:28:21;98614.22;;;17.35;41.73
75013;BME280;63567;49.956;20.130;2024-01-30T11:30:47;98600.81;;;17.50;41.10
75013;BME280;63567;49.956;20.130;2024-01-30T11:33:13;98607.06;;;17.71;41.16
75013;BME280;63567;49.956;20.130;2024-01-30T11:35:43;98602.69;;;17.84;40.87
75013;BME280;63567;49.956;20.130;2024-01-30T11:38:11;98606.47;;;18.03;41.27
75013;BME280;63567;49.956;20.130;2024-01-30T11:40:43;98608.44;;;18.23;41.53
75013;BME280;63567;49.956;20.130;2024-01-30T11:43:09;98599.69;;;18.42;42.04
75013;BME280;63567;49.956;20.130;2024-01-30T11:45:35;98606.13;;;18.61;40.86
75013;BME280;63567;49.956;20.130;2024-01-30T11:48:01;98607.44;;;18.79;40.47
75013;BME280;63567;49.956;20.130;2024-01-30T11:50:35;98603.16;;;18.98;41.23
75013;BME280;63567;49.956;20.130;2024-01-30T11:53:04;98601.13;;;19.20;42.42
75013;BME280;63567;49.956;20.130;2024-01-30T11:55:30;98592.91;;;19.41;42.90
75013;BME280;63567;49.956;20.130;2024-01-30T11:57:57;98592.66;;;19.63;43.76
75013;BME280;63567;49.956;20.130;2024-01-30T12:00:22;98598.22;;;19.81;43.91
75013;BME280;63567;49.956;20.130;2024-01-30T12:02:52;98599.84;;;19.96;44.60
75013;BME280;63567;49.956;20.130;2024-01-30T12:05:21;98594.44;;;20.09;44.50
75013;BME280;63567;49.956;20.130;2024-01-30T12:07:47;98602.22;;;20.24;44.02
75013;BME280;63567;49.956;20.130;2024-01-30T12:10:13;98592.47;;;20.36;43.96
75013;BME280;63567;49.956;20.130;2024-01-30T12:12:39;98597.19;;;20.47;44.67
75013;BME280;63567;49.956;20.130;2024-01-30T12:15:06;98591.38;;;20.57;44.30
75013;BME280;63567;49.956;20.130;2024-01-30T12:17:33;98590.94;;;20.67;44.26
75013;BME280;63567;49.956;20.130;2024-01-30T12:22:33;98576.00;;;20.84;43.86
75013;BME280;63567;49.956;20.130;2024-01-30T12:25:00;98573.63;;;20.95;44.12
75013;BME280;63567;49.956;20.130;2024-01-30T12:27:26;98579.56;;;21.03;43.86
75013;BME280;63567;49.956;20.130;2024-01-30T12:29:58;98584.66;;;21.11;43.66
75013;BME280;63567;49.956;20.130;2024-01-30T12:32:23;98577.59;;;21.17;43.57
75013;BME280;63567;49.956;20.130;2024-01-30T12:34:48;98574.06;;;21.23;43.40
75013;BME280;63567;49.956;20.130;2024-01-30T12:37:14;98577.28;;;21.32;43.64
75013;BME280;63567;49.956;20.130;2024-01-30T12:39:42;98567.94;;;21.41;43.48
75013;BME280;63567;49.956;20.130;2024-01-30T12:42:08;98572.59;;;21.52;42.89
75013;BME280;63567;49.956;20.130;2024-01-30T12:44:33;98567.16;;;21.59;42.95
75013;BME280;63567;49.956;20.130;2024-01-30T12:47:03;98568.75;;;21.67;42.86
75013;BME280;63567;49.956;20.130;2024-01-30T12:49:28;98573.22;;;21.73;42.83
75013;BME280;63567;49.956;20.130;2024-01-30T12:51:53;98565.91;;;21.80;42.39
75013;BME280;63567;49.956;20.130;2024-01-30T12:54:18;98568.31;;;21.88;42.51
75013;BME280;63567;49.956;20.130;2024-01-30T12:56:44;98564.28;;;21.98;42.45
75013;BME280;63567;49.956;20.130;2024-01-30T12:59:09;98564.59;;;22.08;42.16
75013;BME280;63567;49.956;20.130;2024-01-30T13:01:34;98564.84;;;22.18;42.28
75013;BME280;63567;49.956;20.130;2024-01-30T13:03:59;98562.72;;;22.27;41.72